sensor_id;sensor_type;location;lat;lon;timestamp;P1;durP1;ratioP1;P2;durP2;ratioP2
3000;SDS011;1510;51.072;6.678;2022-07-06T00:02:00;54.87;;;52.43;;
3000;SDS011;1510;51.072;6.678;2022-07-06T00:04:27;63.43;;;60.93;;
3000;SDS011;1510;51.072;6.678;2022-07-06T00:06:54;59.70;;;56.77;;
3000;SDS011;1510;51.072;6.678;2022-07-06T00:09:21;60.60;;;57.80;;
3000;SDS011;1510;51.072;6.678;2022-07-06T00:11:48;50.27;;;47.93;;
3000;SDS011;1510;51.072;6.678;2022-07-06T00:14:16;71.00;;;68.17;;
3000;SDS011;1510;51.072;6.678;2022-07-06T00:16:42;96.17;;;92.53;;
3000;SDS011;1510;51.072;6.678;2022-07-06T00:19:09;127.17;;;122.30;;
3000;SDS011;1510;51.072;6.678;2022-07-06T00:21:36;178.50;;;172.30;;
3000;SDS011;1510;51.072;6.678;2022-07-06T00:24:03;160.47;;;154.87;;
3000;SDS011;1510;51.072;6.678;2022-07-06T00:26:30;128.93;;;124.37;;
3000;SDS011;1510;51.072;6.678;2022-07-06T00:28:57;115.53;;;111.50;;
3000;SDS011;1510;51.072;6.678;2022-07-06T00:31:25;136.57;;;130.93;;
3000;SDS011;1510;51.072;6.678;2022-07-06T00:33:52;153.83;;;148.53;;
3000;SDS011;1510;51.072;6.678;2022-07-06T00:36:19;154.47;;;149.30;;
3000;SDS011;1510;51.072;6.678;2022-07-06T00:38:45;193.90;;;187.20;;
3000;SDS011;1510;51.072;6.678;2022-07-06T00:41:12;214.70;;;207.60;;
3000;SDS011;1510;51.072;6.678;2022-07-06T00:43:46;237.07;;;229.13;;
3000;SDS011;1510;51.072;6.678;2022-07-06T00:46:17;236.33;;;228.60;;
3000;SDS011;1510;51.072;6.678;2022-07-06T00:48:45;284.73;;;275.23;;
3000;SDS011;1510;51.072;6.678;2022-07-06T00:51:12;323.97;;;312.70;;
3000;SDS011;1510;51.072;6.678;2022-07-06T00:53:39;324.23;;;312.73;;
3000;SDS011;1510;51.072;6.678;2022-07-06T00:56:07;326.77;;;315.17;;
3000;SDS011;1510;51.072;6.678;2022-07-06T00:58:35;357.60;;;344.70;;
3000;SDS011;1510;51.072;6.678;2022-07-06T01:01:02;375.10;;;361.07;;
3000;SDS011;1510;51.072;6.678;2022-07-06T01:03:29;353.07;;;340.30;;
3000;SDS011;1510;51.072;6.678;2022-07-06T01:05:57;379.87;;;365.73;;
3000;SDS011;1510;51.072;6.678;2022-07-06T01:08:23;389.97;;;375.50;;
3000;SDS011;1510;51.072;6.678;2022-07-06T01:10:51;372.27;;;359.20;;
3000;SDS011;1510;51.072;6.678;2022-07-06T01:13:17;405.77;;;391.17;;
3000;SDS011;1510;51.072;6.678;2022-07-06T01:15:44;473.90;;;455.77;;
3000;SDS011;1510;51.072;6.678;2022-07-06T01:18:11;456.87;;;439.17;;
3000;SDS011;1510;51.072;6.678;2022-07-06T01:20:40;481.53;;;462.27;;
3000;SDS011;1510;51.072;6.678;2022-07-06T01:23:06;524.77;;;503.27;;
3000;SDS011;1510;51.072;6.678;2022-07-06T01:25:33;557.40;;;533.23;;
3000;SDS011;1510;51.072;6.678;2022-07-06T01:28:00;581.60;;;555.80;;
3000;SDS011;1510;51.072;6.678;2022-07-06T01:30:27;567.27;;;542.77;;
3000;SDS011;1510;51.072;6.678;2022-07-06T01:32:54;578.30;;;550.80;;
3000;SDS011;1510;51.072;6.678;2022-07-06T01:35:20;553.97;;;529.47;;
3000;SDS011;1510;51.072;6.678;2022-07-06T01:37:50;480.07;;;460.60;;
3000;SDS011;1510;51.072;6.678;2022-07-06T01:40:17;492.73;;;472.57;;
3000;SDS011;1510;51.072;6.678;2022-07-06T01:42:44;558.30;;;534.63;;
3000;SDS011;1510;51.072;6.678;2022-07-06T01:45:11;564.73;;;541.47;;
3000;SDS011;1510;51.072;6.678;2022-07-06T01:47:37;569.23;;;544.77;;
3000;SDS011;1510;51.072;6.678;2022-07-06T01:50:05;555.70;;;531.93;;
3000;SDS011;1510;51.072;6.678;2022-07-06T01:52:34;607.13;;;579.83;;
3000;SDS011;1510;51.072;6.678;2022-07-06T01:55:02;636.73;;;607.27;;
3000;SDS011;1510;51.072;6.678;2022-07-06T01:57:29;676.30;;;642.20;;
3000;SDS011;1510;51.072;6.678;2022-07-06T01:59:56;707.00;;;670.10;;
3000;SDS011;1510;51.072;6.678;2022-07-06T02:02:23;662.97;;;630.30;;
3000;SDS011;1510;51.072;6.678;2022-07-06T02:04:50;592.67;;;565.13;;
3000;SDS011;1510;51.072;6.678;2022-07-06T02:07:16;606.87;;;578.90;;
3000;SDS011;1510;51.072;6.678;2022-07-06T02:09:43;643.03;;;612.47;;
3000;SDS011;1510;51.072;6.678;2022-07-06T02:12:11;662.60;;;629.93;;
3000;SDS011;1510;51.072;6.678;2022-07-06T02:14:38;663.03;;;630.03;;
3000;SDS011;1510;51.072;6.678;2022-07-06T02:17:05;692.50;;;655.40;;
3000;SDS011;1510;51.072;6.678;2022-07-06T02:19:31;749.40;;;707.17;;
3000;SDS011;1510;51.072;6.678;2022-07-06T02:21:58;751.27;;;707.50;;
3000;SDS011;1510;51.072;6.678;2022-07-06T02:24:25;738.27;;;696.63;;
3000;SDS011;1510;51.072;6.678;2022-07-06T02:26:52;696.03;;;659.03;;
3000;SDS011;1510;51.072;6.678;2022-07-06T02:29:20;673.87;;;640.00;;
3000;SDS011;1510;51.072;6.678;2022-07-06T02:31:46;624.97;;;596.27;;
3000;SDS011;1510;51.072;6.678;2022-07-06T02:34:13;649.97;;;619.00;;
3000;SDS011;1510;51.072;6.678;2022-07-06T02:36:40;684.83;;;650.73;;
3000;SDS011;1510;51.072;6.678;2022-07-06T02:39:06;703.13;;;667.23;;
3000;SDS011;1510;51.072;6.678;2022-07-06T02:41:33;784.97;;;739.60;;
3000;SDS011;1510;51.072;6.678;2022-07-06T02:44:00;765.50;;;721.77;;
3000;SDS011;1510;51.072;6.678;2022-07-06T02:46:28;814.53;;;766.93;;
3000;SDS011;1510;51.072;6.678;2022-07-06T02:48:55;838.50;;;788.40;;
3000;SDS011;1510;51.072;6.678;2022-07-06T02:51:22;816.60;;;768.87;;
3000;SDS011;1510;51.072;6.678;2022-07-06T02:53:49;792.53;;;746.13;;
3000;SDS011;1510;51.072;6.678;2022-07-06T02:56:16;842.63;;;791.63;;
3000;SDS011;1510;51.072;6.678;2022-07-06T02:58:42;845.97;;;793.27;;
3000;SDS011;1510;51.072;6.678;2022-07-06T03:01:09;880.90;;;824.10;;
3000;SDS011;1510;51.072;6.678;2022-07-06T03:03:37;864.17;;;807.20;;
3000;SDS011;1510;51.072;6.678;2022-07-06T03:06:04;860.90;;;804.40;;
3000;SDS011;1510;51.072;6.678;2022-07-06T03:08:31;886.23;;;827.50;;
3000;SDS011;1510;51.072;6.678;2022-07-06T03:10:59;857.33;;;799.70;;
3000;SDS011;1510;51.072;6.678;2022-07-06T03:13:26;863.53;;;806.80;;
3000;SDS011;1510;51.072;6.678;2022-07-06T03:15:53;837.80;;;782.80;;
3000;SDS011;1510;51.072;6.678;2022-07-06T03:18:19;850.77;;;793.80;;
3000;SDS011;1510;51.072;6.678;2022-07-06T03:20:48;858.80;;;800.43;;
3000;SDS011;1510;51.072;6.678;2022-07-06T03:23:14;847.00;;;791.60;;
3000;SDS011;1510;51.072;6.678;2022-07-06T03:25:41;834.40;;;782.17;;
3000;SDS011;1510;51.072;6.678;2022-07-06T03:28:08;829.77;;;778.90;;
3000;SDS011;1510;51.072;6.678;2022-07-06T03:30:35;827.13;;;777.70;;
3000;SDS011;1510;51.072;6.678;2022-07-06T03:33:01;804.20;;;757.30;;
3000;SDS011;1510;51.072;6.678;2022-07-06T03:35:28;821.63;;;773.23;;
3000;SDS011;1510;51.072;6.678;2022-07-06T03:37:56;825.43;;;777.33;;
3000;SDS011;1510;51.072;6.678;2022-07-06T03:40:23;848.97;;;796.30;;
3000;SDS011;1510;51.072;6.678;2022-07-06T03:42:50;858.77;;;802.37;;
3000;SDS011;1510;51.072;6.678;2022-07-06T03:45:17;840.00;;;788.50;;
3000;SDS011;1510;51.072;6.678;2022-07-06T03:47:43;833.93;;;784.43;;
3000;SDS011;1510;51.072;6.678;2022-07-06T03:50:10;857.70;;;803.10;;
3000;SDS011;1510;51.072;6.678;2022-07-06T03:52:37;842.77;;;788.37;;
3000;SDS011;1510;51.072;6.678;2022-07-06T03:55:07;856.53;;;801.20;;
3000;SDS011;1510;51.072;6.678;2022-07-06T03:57:35;853.87;;;796.17;;
3000;SDS011;1510;51.072;6.678;2022-07-06T04:00:02;861.37;;;802.07;;
3000;SDS011;1510;51.072;6.678;2022-07-06T04:02:30;856.93;;;796.10;;
3000;SDS011;1510;51.072;6.678;2022-07-06T04:04:57;838.70;;;778.77;;
3000;SDS011;1510;51.072;6.678;2022-07-06T04:07:23;829.23;;;770.00;;
3000;SDS011;1510;51.072;6.678;2022-07-06T04:09:50;832.47;;;773.80;;
3000;SDS011;1510;51.072;6.678;2022-07-06T04:12:18;834.63;;;778.13;;
3000;SDS011;1510;51.072;6.678;2022-07-06T04:14:45;835.43;;;780.07;;
3000;SDS011;1510;51.072;6.678;2022-07-06T04:17:12;832.07;;;776.90;;
3000;SDS011;1510;51.072;6.678;2022-07-06T04:19:57;842.87;;;786.17;;
3000;SDS011;1510;51.072;6.678;2022-07-06T04:22:23;838.97;;;781.70;;
3000;SDS011;1510;51.072;6.678;2022-07-06T04:24:50;826.73;;;769.17;;
3000;SDS011;1510;51.072;6.678;2022-07-06T04:27:18;833.80;;;774.67;;
3000;SDS011;1510;51.072;6.678;2022-07-06T04:29:45;820.70;;;765.43;;
3000;SDS011;1510;51.072;6.678;2022-07-06T04:32:12;836.77;;;777.80;;
3000;SDS011;1510;51.072;6.678;2022-07-06T04:34:38;835.37;;;774.87;;
3000;SDS011;1510;51.072;6.678;2022-07-06T04:37:05;825.90;;;766.67;;
3000;SDS011;1510;51.072;6.678;2022-07-06T04:39:32;838.37;;;777.70;;
3000;SDS011;1510;51.072;6.678;2022-07-06T04:41:59;842.27;;;780.73;;
3000;SDS011;1510;51.072;6.678;2022-07-06T04:44:27;842.73;;;779.40;;
3000;SDS011;1510;51.072;6.678;2022-07-06T04:46:53;824.47;;;760.20;;
3000;SDS011;1510;51.072;6.678;2022-07-06T04:49:20;834.20;;;771.10;;
3000;SDS011;1510;51.072;6.678;2022-07-06T04:51:47;833.17;;;770.27;;
3000;SDS011;1510;51.072;6.678;2022-07-06T04:54:13;838.63;;;777.03;;
3000;SDS011;1510;51.072;6.678;2022-07-06T04:56:40;836.43;;;778.07;;
3000;SDS011;1510;51.072;6.678;2022-07-06T04:59:07;825.23;;;770.70;;
3000;SDS011;1510;51.072;6.678;2022-07-06T05:01:35;808.33;;;756.80;;
3000;SDS011;1510;51.072;6.678;2022-07-06T05:04:02;788.60;;;741.03;;
3000;SDS011;1510;51.072;6.678;2022-07-06T05:06:29;753.23;;;712.20;;
3000;SDS011;1510;51.072;6.678;2022-07-06T05:08:56;637.90;;;605.60;;
3000;SDS011;1510;51.072;6.678;2022-07-06T05:11:24;602.10;;;573.20;;
3000;SDS011;1510;51.072;6.678;2022-07-06T05:13:51;577.50;;;550.17;;
3000;SDS011;1510;51.072;6.678;2022-07-06T05:16:18;504.87;;;482.67;;
3000;SDS011;1510;51.072;6.678;2022-07-06T05:18:46;436.10;;;418.23;;
3000;SDS011;1510;51.072;6.678;2022-07-06T05:21:13;417.83;;;400.77;;
3000;SDS011;1510;51.072;6.678;2022-07-06T05:23:40;219.23;;;210.73;;
3000;SDS011;1510;51.072;6.678;2022-07-06T05:26:06;76.03;;;72.77;;
3000;SDS011;1510;51.072;6.678;2022-07-06T05:28:33;36.27;;;33.73;;
3000;SDS011;1510;51.072;6.678;2022-07-06T05:31:00;17.13;;;15.53;;
3000;SDS011;1510;51.072;6.678;2022-07-06T05:33:27;20.47;;;12.13;;
3000;SDS011;1510;51.072;6.678;2022-07-06T05:35:55;20.27;;;16.73;;
3000;SDS011;1510;51.072;6.678;2022-07-06T05:38:21;16.30;;;11.27;;
3000;SDS011;1510;51.072;6.678;2022-07-06T05:40:48;14.27;;;8.60;;
3000;SDS011;1510;51.072;6.678;2022-07-06T05:43:15;16.63;;;7.07;;
3000;SDS011;1510;51.072;6.678;2022-07-06T05:45:42;17.70;;;4.77;;
3000;SDS011;1510;51.072;6.678;2022-07-06T05:48:09;7.57;;;3.87;;
3000;SDS011;1510;51.072;6.678;2022-07-06T05:50:54;11.23;;;3.70;;
3000;SDS011;1510;51.072;6.678;2022-07-06T05:53:21;7.90;;;3.90;;
3000;SDS011;1510;51.072;6.678;2022-07-06T05:55:48;7.67;;;3.27;;
3000;SDS011;1510;51.072;6.678;2022-07-06T05:58:15;7.30;;;3.37;;
3000;SDS011;1510;51.072;6.678;2022-07-06T06:00:41;5.90;;;3.23;;
3000;SDS011;1510;51.072;6.678;2022-07-06T06:03:08;6.83;;;3.47;;
3000;SDS011;1510;51.072;6.678;2022-07-06T06:05:35;7.40;;;3.03;;
3000;SDS011;1510;51.072;6.678;2022-07-06T06:08:03;5.50;;;3.10;;
3000;SDS011;1510;51.072;6.678;2022-07-06T06:10:30;5.23;;;2.70;;
3000;SDS011;1510;51.072;6.678;2022-07-06T06:12:57;5.67;;;2.60;;
3000;SDS011;1510;51.072;6.678;2022-07-06T06:15:24;10.63;;;2.93;;
3000;SDS011;1510;51.072;6.678;2022-07-06T06:17:51;5.80;;;2.30;;
3000;SDS011;1510;51.072;6.678;2022-07-06T06:20:17;7.10;;;2.57;;
3000;SDS011;1510;51.072;6.678;2022-07-06T06:22:45;7.60;;;2.30;;
3000;SDS011;1510;51.072;6.678;2022-07-06T06:25:14;11.80;;;3.13;;
3000;SDS011;1510;51.072;6.678;2022-07-06T06:27:42;8.00;;;2.10;;
3000;SDS011;1510;51.072;6.678;2022-07-06T06:30:09;8.73;;;2.30;;
3000;SDS011;1510;51.072;6.678;2022-07-06T06:32:36;10.50;;;2.77;;
3000;SDS011;1510;51.072;6.678;2022-07-06T06:35:04;7.27;;;2.77;;
3000;SDS011;1510;51.072;6.678;2022-07-06T06:37:32;6.30;;;2.10;;
3000;SDS011;1510;51.072;6.678;2022-07-06T06:39:59;5.70;;;2.47;;
3000;SDS011;1510;51.072;6.678;2022-07-06T06:42:27;6.63;;;2.43;;
3000;SDS011;1510;51.072;6.678;2022-07-06T06:44:54;5.20;;;2.33;;
3000;SDS011;1510;51.072;6.678;2022-07-06T06:47:21;15.27;;;2.37;;
3000;SDS011;1510;51.072;6.678;2022-07-06T06:49:47;6.83;;;2.47;;
3000;SDS011;1510;51.072;6.678;2022-07-06T06:52:14;14.87;;;3.03;;
3000;SDS011;1510;51.072;6.678;2022-07-06T06:54:43;4.60;;;1.93;;
3000;SDS011;1510;51.072;6.678;2022-07-06T06:57:10;7.50;;;2.20;;
3000;SDS011;1510;51.072;6.678;2022-07-06T06:59:38;5.43;;;1.77;;
3000;SDS011;1510;51.072;6.678;2022-07-06T07:02:05;4.43;;;1.87;;
3000;SDS011;1510;51.072;6.678;2022-07-06T07:04:36;5.80;;;1.87;;
3000;SDS011;1510;51.072;6.678;2022-07-06T07:07:07;12.13;;;2.30;;
3000;SDS011;1510;51.072;6.678;2022-07-06T07:09:34;4.83;;;1.83;;
3000;SDS011;1510;51.072;6.678;2022-07-06T07:12:01;6.60;;;1.77;;
3000;SDS011;1510;51.072;6.678;2022-07-06T07:14:28;5.97;;;1.87;;
3000;SDS011;1510;51.072;6.678;2022-07-06T07:16:58;4.43;;;1.57;;
3000;SDS011;1510;51.072;6.678;2022-07-06T07:19:26;5.03;;;1.30;;
3000;SDS011;1510;51.072;6.678;2022-07-06T07:21:59;4.77;;;2.20;;
3000;SDS011;1510;51.072;6.678;2022-07-06T07:24:26;5.00;;;1.10;;
3000;SDS011;1510;51.072;6.678;2022-07-06T07:26:53;5.13;;;1.23;;
3000;SDS011;1510;51.072;6.678;2022-07-06T07:29:19;5.90;;;1.40;;
3000;SDS011;1510;51.072;6.678;2022-07-06T07:31:46;5.10;;;1.23;;
3000;SDS011;1510;51.072;6.678;2022-07-06T07:34:14;5.00;;;1.40;;
3000;SDS011;1510;51.072;6.678;2022-07-06T07:36:42;8.00;;;1.40;;
3000;SDS011;1510;51.072;6.678;2022-07-06T07:39:08;4.00;;;1.33;;
3000;SDS011;1510;51.072;6.678;2022-07-06T07:41:58;5.50;;;1.30;;
3000;SDS011;1510;51.072;6.678;2022-07-06T07:44:46;3.80;;;1.20;;
3000;SDS011;1510;51.072;6.678;2022-07-06T07:47:15;5.00;;;1.40;;
3000;SDS011;1510;51.072;6.678;2022-07-06T07:49:43;5.53;;;1.37;;
3000;SDS011;1510;51.072;6.678;2022-07-06T07:52:10;3.40;;;0.80;;
3000;SDS011;1510;51.072;6.678;2022-07-06T07:54:37;4.30;;;1.13;;
3000;SDS011;1510;51.072;6.678;2022-07-06T07:57:03;3.80;;;1.30;;
3000;SDS011;1510;51.072;6.678;2022-07-06T07:59:34;4.60;;;1.40;;
3000;SDS011;1510;51.072;6.678;2022-07-06T08:02:19;11.43;;;2.07;;
3000;SDS011;1510;51.072;6.678;2022-07-06T08:05:19;4.87;;;1.60;;
3000;SDS011;1510;51.072;6.678;2022-07-06T08:07:57;5.73;;;1.50;;
3000;SDS011;1510;51.072;6.678;2022-07-06T08:10:43;5.30;;;1.17;;
3000;SDS011;1510;51.072;6.678;2022-07-06T08:13:38;4.20;;;1.10;;
3000;SDS011;1510;51.072;6.678;2022-07-06T08:16:05;4.90;;;1.30;;
3000;SDS011;1510;51.072;6.678;2022-07-06T08:18:33;4.87;;;0.90;;
3000;SDS011;1510;51.072;6.678;2022-07-06T08:21:03;4.30;;;1.20;;
3000;SDS011;1510;51.072;6.678;2022-07-06T08:30:43;5.67;;;1.00;;
3000;SDS011;1510;51.072;6.678;2022-07-06T08:33:24;3.80;;;1.10;;
3000;SDS011;1510;51.072;6.678;2022-07-06T08:36:30;3.90;;;0.87;;
3000;SDS011;1510;51.072;6.678;2022-07-06T08:39:36;6.10;;;1.67;;
3000;SDS011;1510;51.072;6.678;2022-07-06T08:42:49;3.70;;;1.00;;
3000;SDS011;1510;51.072;6.678;2022-07-06T08:45:20;3.90;;;1.13;;
3000;SDS011;1510;51.072;6.678;2022-07-06T08:47:49;9.97;;;1.70;;
3000;SDS011;1510;51.072;6.678;2022-07-06T08:50:29;5.50;;;1.50;;
3000;SDS011;1510;51.072;6.678;2022-07-06T08:53:01;5.20;;;1.10;;
3000;SDS011;1510;51.072;6.678;2022-07-06T08:55:29;9.60;;;1.63;;
3000;SDS011;1510;51.072;6.678;2022-07-06T08:57:58;4.90;;;1.40;;
3000;SDS011;1510;51.072;6.678;2022-07-06T09:00:25;4.10;;;1.30;;
3000;SDS011;1510;51.072;6.678;2022-07-06T09:02:54;3.50;;;1.03;;
3000;SDS011;1510;51.072;6.678;2022-07-06T09:05:24;4.95;;;1.25;;
3000;SDS011;1510;51.072;6.678;2022-07-06T09:07:51;8.13;;;1.10;;
3000;SDS011;1510;51.072;6.678;2022-07-06T09:10:21;6.23;;;1.60;;
3000;SDS011;1510;51.072;6.678;2022-07-06T09:12:50;5.63;;;1.30;;
3000;SDS011;1510;51.072;6.678;2022-07-06T09:15:28;7.30;;;1.50;;
3000;SDS011;1510;51.072;6.678;2022-07-06T09:17:55;4.93;;;1.50;;
3000;SDS011;1510;51.072;6.678;2022-07-06T09:20:23;5.40;;;1.00;;
3000;SDS011;1510;51.072;6.678;2022-07-06T09:22:53;11.60;;;1.20;;
3000;SDS011;1510;51.072;6.678;2022-07-06T09:25:26;11.83;;;1.63;;
3000;SDS011;1510;51.072;6.678;2022-07-06T09:27:54;7.83;;;1.80;;
3000;SDS011;1510;51.072;6.678;2022-07-06T09:30:23;4.87;;;1.43;;
3000;SDS011;1510;51.072;6.678;2022-07-06T09:32:52;5.10;;;1.20;;
3000;SDS011;1510;51.072;6.678;2022-07-06T09:35:20;5.30;;;1.20;;
3000;SDS011;1510;51.072;6.678;2022-07-06T09:37:59;7.50;;;1.50;;
3000;SDS011;1510;51.072;6.678;2022-07-06T09:40:29;5.23;;;1.23;;
3000;SDS011;1510;51.072;6.678;2022-07-06T09:43:09;6.33;;;1.27;;
3000;SDS011;1510;51.072;6.678;2022-07-06T09:45:39;5.50;;;1.10;;
3000;SDS011;1510;51.072;6.678;2022-07-06T09:48:07;8.80;;;1.20;;
3000;SDS011;1510;51.072;6.678;2022-07-06T09:50:39;5.60;;;1.30;;
3000;SDS011;1510;51.072;6.678;2022-07-06T09:53:06;10.00;;;1.40;;
3000;SDS011;1510;51.072;6.678;2022-07-06T09:55:35;4.00;;;1.20;;
3000;SDS011;1510;51.072;6.678;2022-07-06T09:58:02;7.00;;;1.23;;
3000;SDS011;1510;51.072;6.678;2022-07-06T10:00:29;4.60;;;1.30;;
3000;SDS011;1510;51.072;6.678;2022-07-06T10:02:56;6.27;;;1.50;;
3000;SDS011;1510;51.072;6.678;2022-07-06T10:05:23;5.70;;;1.23;;
3000;SDS011;1510;51.072;6.678;2022-07-06T10:07:55;6.90;;;1.30;;
3000;SDS011;1510;51.072;6.678;2022-07-06T10:10:24;4.77;;;1.23;;
3000;SDS011;1510;51.072;6.678;2022-07-06T10:12:57;5.80;;;1.20;;
3000;SDS011;1510;51.072;6.678;2022-07-06T10:18:11;9.35;;;1.50;;
3000;SDS011;1510;51.072;6.678;2022-07-06T10:20:38;9.43;;;1.30;;
3000;SDS011;1510;51.072;6.678;2022-07-06T10:23:14;4.93;;;1.13;;
3000;SDS011;1510;51.072;6.678;2022-07-06T10:25:47;7.00;;;1.17;;
3000;SDS011;1510;51.072;6.678;2022-07-06T10:28:16;4.60;;;0.93;;
3000;SDS011;1510;51.072;6.678;2022-07-06T10:32:11;4.03;;;1.00;;
3000;SDS011;1510;51.072;6.678;2022-07-06T10:34:21;4.57;;;1.30;;
3000;SDS011;1510;51.072;6.678;2022-07-06T10:36:49;5.93;;;1.43;;
3000;SDS011;1510;51.072;6.678;2022-07-06T10:39:16;11.00;;;1.73;;
3000;SDS011;1510;51.072;6.678;2022-07-06T10:45:12;4.00;;;1.10;;
3000;SDS011;1510;51.072;6.678;2022-07-06T10:47:40;6.83;;;1.43;;
3000;SDS011;1510;51.072;6.678;2022-07-06T10:50:07;5.03;;;1.40;;
3000;SDS011;1510;51.072;6.678;2022-07-06T10:52:50;4.80;;;1.57;;
3000;SDS011;1510;51.072;6.678;2022-07-06T10:55:28;8.53;;;1.50;;
3000;SDS011;1510;51.072;6.678;2022-07-06T10:57:57;5.37;;;1.23;;
3000;SDS011;1510;51.072;6.678;2022-07-06T11:00:26;8.20;;;1.50;;
3000;SDS011;1510;51.072;6.678;2022-07-06T11:03:31;4.63;;;1.57;;
3000;SDS011;1510;51.072;6.678;2022-07-06T11:05:59;5.10;;;1.50;;
3000;SDS011;1510;51.072;6.678;2022-07-06T11:08:46;4.77;;;1.40;;
3000;SDS011;1510;51.072;6.678;2022-07-06T11:11:15;5.50;;;1.43;;
3000;SDS011;1510;51.072;6.678;2022-07-06T11:13:51;4.27;;;1.50;;
3000;SDS011;1510;51.072;6.678;2022-07-06T11:16:21;4.10;;;1.20;;
3000;SDS011;1510;51.072;6.678;2022-07-06T11:19:00;3.90;;;1.00;;
3000;SDS011;1510;51.072;6.678;2022-07-06T11:21:34;4.73;;;1.30;;
3000;SDS011;1510;51.072;6.678;2022-07-06T11:24:06;4.27;;;1.63;;
3000;SDS011;1510;51.072;6.678;2022-07-06T11:26:34;5.67;;;1.20;;
3000;SDS011;1510;51.072;6.678;2022-07-06T11:29:05;4.57;;;1.23;;
3000;SDS011;1510;51.072;6.678;2022-07-06T11:31:35;4.57;;;1.50;;
3000;SDS011;1510;51.072;6.678;2022-07-06T11:34:07;7.30;;;1.60;;
3000;SDS011;1510;51.072;6.678;2022-07-06T11:36:35;4.60;;;1.17;;
3000;SDS011;1510;51.072;6.678;2022-07-06T11:39:03;5.77;;;1.83;;
3000;SDS011;1510;51.072;6.678;2022-07-06T11:41:31;5.80;;;1.53;;
3000;SDS011;1510;51.072;6.678;2022-07-06T11:43:58;5.00;;;1.17;;
3000;SDS011;1510;51.072;6.678;2022-07-06T11:46:28;4.90;;;1.37;;
3000;SDS011;1510;51.072;6.678;2022-07-06T11:48:57;5.00;;;1.30;;
3000;SDS011;1510;51.072;6.678;2022-07-06T11:51:25;5.33;;;1.30;;
3000;SDS011;1510;51.072;6.678;2022-07-06T11:53:54;4.00;;;1.00;;
3000;SDS011;1510;51.072;6.678;2022-07-06T11:56:22;4.97;;;1.27;;
3000;SDS011;1510;51.072;6.678;2022-07-06T11:58:52;3.90;;;1.00;;
3000;SDS011;1510;51.072;6.678;2022-07-06T12:01:20;6.93;;;1.37;;
3000;SDS011;1510;51.072;6.678;2022-07-06T12:03:48;14.23;;;3.93;;
3000;SDS011;1510;51.072;6.678;2022-07-06T12:06:18;6.60;;;1.17;;
3000;SDS011;1510;51.072;6.678;2022-07-06T12:08:46;5.60;;;1.20;;
3000;SDS011;1510;51.072;6.678;2022-07-06T12:11:20;4.20;;;1.10;;
3000;SDS011;1510;51.072;6.678;2022-07-06T12:13:49;5.43;;;1.10;;
3000;SDS011;1510;51.072;6.678;2022-07-06T12:16:16;5.80;;;1.17;;
3000;SDS011;1510;51.072;6.678;2022-07-06T12:18:44;4.13;;;0.97;;
3000;SDS011;1510;51.072;6.678;2022-07-06T12:21:13;8.03;;;1.23;;
3000;SDS011;1510;51.072;6.678;2022-07-06T12:23:44;9.60;;;1.30;;
3000;SDS011;1510;51.072;6.678;2022-07-06T12:26:12;3.90;;;1.00;;
3000;SDS011;1510;51.072;6.678;2022-07-06T12:28:40;4.20;;;1.20;;
3000;SDS011;1510;51.072;6.678;2022-07-06T12:31:08;4.30;;;1.10;;
3000;SDS011;1510;51.072;6.678;2022-07-06T12:33:35;4.57;;;1.00;;
3000;SDS011;1510;51.072;6.678;2022-07-06T12:36:12;4.87;;;1.20;;
3000;SDS011;1510;51.072;6.678;2022-07-06T12:38:48;4.47;;;1.17;;
3000;SDS011;1510;51.072;6.678;2022-07-06T12:41:25;5.20;;;1.13;;
3000;SDS011;1510;51.072;6.678;2022-07-06T12:43:59;5.47;;;1.23;;
3000;SDS011;1510;51.072;6.678;2022-07-06T12:46:27;3.90;;;0.93;;
3000;SDS011;1510;51.072;6.678;2022-07-06T12:48:56;6.97;;;1.07;;
3000;SDS011;1510;51.072;6.678;2022-07-06T12:51:23;6.17;;;1.10;;
3000;SDS011;1510;51.072;6.678;2022-07-06T12:53:51;7.40;;;1.10;;
3000;SDS011;1510;51.072;6.678;2022-07-06T12:56:37;7.20;;;1.13;;
3000;SDS011;1510;51.072;6.678;2022-07-06T12:59:23;6.00;;;1.20;;
3000;SDS011;1510;51.072;6.678;2022-07-06T13:01:51;5.17;;;1.30;;
3000;SDS011;1510;51.072;6.678;2022-07-06T13:04:21;7.40;;;0.93;;
3000;SDS011;1510;51.072;6.678;2022-07-06T13:06:48;4.07;;;1.00;;
3000;SDS011;1510;51.072;6.678;2022-07-06T13:09:17;5.57;;;1.50;;
3000;SDS011;1510;51.072;6.678;2022-07-06T13:11:44;4.20;;;1.20;;
3000;SDS011;1510;51.072;6.678;2022-07-06T13:14:11;5.43;;;1.23;;
3000;SDS011;1510;51.072;6.678;2022-07-06T13:16:38;5.23;;;1.00;;
3000;SDS011;1510;51.072;6.678;2022-07-06T13:19:11;4.87;;;1.50;;
3000;SDS011;1510;51.072;6.678;2022-07-06T13:21:38;5.67;;;1.57;;
3000;SDS011;1510;51.072;6.678;2022-07-06T13:24:08;4.20;;;1.00;;
3000;SDS011;1510;51.072;6.678;2022-07-06T13:26:36;4.10;;;1.00;;
3000;SDS011;1510;51.072;6.678;2022-07-06T13:29:06;3.80;;;0.83;;
3000;SDS011;1510;51.072;6.678;2022-07-06T13:31:35;5.20;;;1.20;;
3000;SDS011;1510;51.072;6.678;2022-07-06T13:34:03;6.13;;;1.20;;
3000;SDS011;1510;51.072;6.678;2022-07-06T13:36:30;5.53;;;0.90;;
3000;SDS011;1510;51.072;6.678;2022-07-06T13:38:57;7.53;;;1.10;;
3000;SDS011;1510;51.072;6.678;2022-07-06T13:41:24;4.10;;;0.90;;
3000;SDS011;1510;51.072;6.678;2022-07-06T13:43:52;4.17;;;1.10;;
3000;SDS011;1510;51.072;6.678;2022-07-06T13:46:19;3.93;;;1.10;;
3000;SDS011;1510;51.072;6.678;2022-07-06T13:48:46;4.30;;;0.90;;
3000;SDS011;1510;51.072;6.678;2022-07-06T13:51:13;3.70;;;0.87;;
3000;SDS011;1510;51.072;6.678;2022-07-06T13:53:40;8.70;;;2.13;;
3000;SDS011;1510;51.072;6.678;2022-07-06T13:56:06;7.73;;;1.33;;
3000;SDS011;1510;51.072;6.678;2022-07-06T13:58:33;6.37;;;1.23;;
3000;SDS011;1510;51.072;6.678;2022-07-06T14:01:02;4.17;;;1.23;;
3000;SDS011;1510;51.072;6.678;2022-07-06T14:03:29;4.50;;;1.07;;
3000;SDS011;1510;51.072;6.678;2022-07-06T14:05:56;7.00;;;1.30;;
3000;SDS011;1510;51.072;6.678;2022-07-06T14:08:23;5.43;;;1.17;;
3000;SDS011;1510;51.072;6.678;2022-07-06T14:10:51;5.77;;;1.30;;
3000;SDS011;1510;51.072;6.678;2022-07-06T14:13:19;5.50;;;1.30;;
3000;SDS011;1510;51.072;6.678;2022-07-06T14:15:46;6.20;;;1.20;;
3000;SDS011;1510;51.072;6.678;2022-07-06T14:18:15;5.00;;;1.17;;
3000;SDS011;1510;51.072;6.678;2022-07-06T14:20:43;6.50;;;1.20;;
3000;SDS011;1510;51.072;6.678;2022-07-06T14:23:10;4.77;;;1.17;;
3000;SDS011;1510;51.072;6.678;2022-07-06T14:25:37;4.20;;;1.20;;
3000;SDS011;1510;51.072;6.678;2022-07-06T14:28:04;4.13;;;1.20;;
3000;SDS011;1510;51.072;6.678;2022-07-06T14:30:31;5.73;;;1.03;;
3000;SDS011;1510;51.072;6.678;2022-07-06T14:32:57;4.57;;;1.10;;
3000;SDS011;1510;51.072;6.678;2022-07-06T14:35:26;4.30;;;1.00;;
3000;SDS011;1510;51.072;6.678;2022-07-06T14:37:52;7.27;;;1.20;;
3000;SDS011;1510;51.072;6.678;2022-07-06T14:40:19;5.27;;;1.70;;
3000;SDS011;1510;51.072;6.678;2022-07-06T14:42:46;6.30;;;1.30;;
3000;SDS011;1510;51.072;6.678;2022-07-06T14:45:12;4.97;;;0.90;;
3000;SDS011;1510;51.072;6.678;2022-07-06T14:47:39;3.97;;;1.20;;
3000;SDS011;1510;51.072;6.678;2022-07-06T14:50:06;4.87;;;1.20;;
3000;SDS011;1510;51.072;6.678;2022-07-06T14:52:35;4.50;;;1.07;;
3000;SDS011;1510;51.072;6.678;2022-07-06T14:55:02;3.67;;;0.90;;
3000;SDS011;1510;51.072;6.678;2022-07-06T14:57:29;5.77;;;1.10;;
3000;SDS011;1510;51.072;6.678;2022-07-06T14:59:56;9.67;;;1.17;;
3000;SDS011;1510;51.072;6.678;2022-07-06T15:02:25;7.93;;;1.40;;
3000;SDS011;1510;51.072;6.678;2022-07-06T15:04:54;3.80;;;0.83;;
3000;SDS011;1510;51.072;6.678;2022-07-06T15:07:21;4.40;;;1.20;;
3000;SDS011;1510;51.072;6.678;2022-07-06T15:09:49;4.67;;;1.10;;
3000;SDS011;1510;51.072;6.678;2022-07-06T15:12:16;3.90;;;0.90;;
3000;SDS011;1510;51.072;6.678;2022-07-06T15:14:43;4.93;;;1.50;;
3000;SDS011;1510;51.072;6.678;2022-07-06T15:17:13;4.53;;;0.97;;
3000;SDS011;1510;51.072;6.678;2022-07-06T15:19:44;4.77;;;1.13;;
3000;SDS011;1510;51.072;6.678;2022-07-06T15:22:11;4.77;;;1.10;;